createdAt,value
2023-04-30T00:02:21.748Z,69.19
2023-04-30T00:04:50.032Z,69.17
2023-04-30T00:07:21.357Z,69.18
2023-04-30T00:09:51.296Z,68.91
2023-04-30T00:12:19.666Z,68.85
2023-04-30T00:14:47.892Z,68.88
2023-04-30T00:17:16.399Z,68.51
2023-04-30T00:19:44.582Z,68.58
2023-04-30T00:22:12.669Z,68.76
2023-04-30T00:24:40.906Z,68.59
2023-04-30T00:27:09.000Z,68.56
2023-04-30T00:29:37.851Z,68.58
2023-04-30T00:32:06.484Z,68.53
2023-04-30T00:34:34.733Z,68.71
2023-04-30T00:37:02.837Z,68.64
2023-04-30T00:39:30.866Z,68.64
2023-04-30T00:41:59.003Z,68.53
2023-04-30T00:44:27.019Z,68.65
2023-04-30T00:46:55.049Z,68.38
2023-04-30T00:49:23.382Z,68.72
2023-04-30T00:51:52.301Z,68.76
2023-04-30T00:54:21.447Z,68.56
2023-04-30T00:56:49.743Z,68.85
2023-04-30T00:59:18.460Z,68.73
2023-04-30T01:01:46.920Z,68.86
2023-04-30T01:04:14.958Z,68.65
2023-04-30T01:06:43.488Z,68.44
2023-04-30T01:09:12.204Z,68.86
2023-04-30T01:11:55.882Z,68.77
2023-04-30T01:14:38.482Z,68.64
2023-04-30T01:17:33.230Z,68.64
2023-04-30T01:20:02.664Z,68.58
2023-04-30T01:22:38.230Z,68.40
2023-04-30T01:25:15.901Z,68.87
2023-04-30T01:28:07.749Z,68.93
2023-04-30T01:30:37.836Z,69.18
2023-04-30T01:33:05.747Z,69.15
2023-04-30T01:35:39.602Z,69.18
2023-04-30T01:38:37.676Z,69.11
2023-04-30T01:41:26.340Z,69.16
2023-04-30T01:44:12.319Z,68.98
2023-04-30T01:46:42.473Z,69.03
2023-04-30T01:49:22.143Z,69.08
2023-04-30T01:51:58.622Z,69.14
2023-04-30T01:55:00.610Z,69.19
2023-04-30T01:57:34.155Z,69.11
2023-04-30T02:00:04.847Z,69.09
2023-04-30T02:02:33.256Z,69.28
2023-04-30T02:05:01.401Z,69.07
2023-04-30T02:07:39.935Z,69.42
2023-04-30T02:10:08.764Z,69.20
2023-04-30T02:12:36.974Z,69.40
2023-04-30T02:15:06.238Z,69.54
2023-04-30T02:17:34.569Z,69.71
2023-04-30T02:20:03.306Z,70.03
2023-04-30T02:22:31.368Z,70.03
2023-04-30T02:24:59.450Z,69.80
2023-04-30T02:27:30.229Z,69.95
2023-04-30T02:29:59.048Z,69.86
2023-04-30T02:32:27.348Z,69.68
2023-04-30T02:34:55.580Z,69.51
2023-04-30T02:37:23.951Z,69.61
2023-04-30T02:39:52.394Z,69.71
2023-04-30T02:42:20.570Z,69.58
2023-04-30T02:44:48.622Z,70.07
2023-04-30T02:47:16.825Z,70.11
2023-04-30T02:49:44.852Z,69.79
2023-04-30T02:52:12.961Z,69.67
2023-04-30T02:54:41.265Z,69.85
2023-04-30T02:57:09.325Z,70.04
2023-04-30T02:59:38.815Z,70.04
2023-04-30T03:02:06.982Z,69.89
2023-04-30T03:04:35.133Z,69.69
2023-04-30T03:07:03.600Z,69.79
2023-04-30T03:09:32.464Z,69.73
2023-04-30T03:12:00.809Z,69.77
2023-04-30T03:14:29.684Z,69.84
2023-04-30T03:16:57.806Z,69.74
2023-04-30T03:19:25.820Z,69.73
2023-04-30T03:21:55.028Z,69.46
2023-04-30T03:24:23.217Z,69.58
2023-04-30T03:26:51.290Z,69.80
2023-04-30T03:29:19.322Z,69.60
2023-04-30T03:31:47.475Z,69.63
2023-04-30T03:34:15.549Z,69.66
2023-04-30T03:36:43.576Z,69.76
2023-04-30T03:39:11.838Z,69.76
2023-04-30T03:41:39.874Z,69.73
2023-04-30T03:44:15.028Z,69.67
2023-04-30T03:46:46.010Z,69.85
2023-04-30T03:49:14.066Z,69.80
2023-04-30T03:51:42.346Z,69.79
2023-04-30T03:54:10.538Z,69.84
2023-04-30T03:56:39.117Z,69.66
2023-04-30T03:59:07.293Z,69.71
2023-04-30T04:01:35.431Z,69.91
2023-04-30T04:04:03.561Z,70.11
2023-04-30T04:06:32.380Z,70.32
2023-04-30T04:09:00.668Z,70.25
2023-04-30T04:11:28.997Z,70.24
2023-04-30T04:13:57.123Z,70.37
2023-04-30T04:16:25.821Z,70.46
2023-04-30T04:18:53.852Z,70.48
2023-04-30T04:21:21.892Z,70.80
2023-04-30T04:23:50.470Z,70.72
2023-04-30T04:26:21.658Z,71.17
2023-04-30T04:28:49.660Z,70.84
2023-04-30T04:31:18.462Z,71.10
2023-04-30T04:33:46.979Z,70.83
2023-04-30T04:36:16.324Z,70.88
2023-04-30T04:38:44.602Z,70.85
2023-04-30T04:41:12.556Z,70.79
2023-04-30T04:43:41.138Z,70.90
2023-04-30T04:46:10.629Z,71.04
2023-04-30T04:48:39.815Z,70.82
2023-04-30T04:51:07.871Z,70.98
2023-04-30T04:53:36.647Z,70.54
2023-04-30T04:56:05.699Z,70.82
2023-04-30T04:58:33.876Z,71.49
2023-04-30T05:01:03.113Z,71.60
2023-04-30T05:03:32.504Z,72.26
2023-04-30T05:06:00.633Z,72.21
2023-04-30T05:08:28.824Z,71.62
2023-04-30T05:10:56.900Z,72.18
2023-04-30T05:13:24.916Z,71.76
2023-04-30T05:15:53.953Z,71.28
2023-04-30T05:18:22.795Z,71.23
2023-04-30T05:20:50.822Z,70.79
2023-04-30T05:23:19.037Z,71.22
2023-04-30T05:25:52.880Z,70.94
2023-04-30T05:28:21.111Z,71.15
2023-04-30T05:30:49.132Z,71.05
2023-04-30T05:33:17.162Z,70.62
2023-04-30T05:35:45.327Z,69.38
2023-04-30T05:38:13.483Z,69.66
2023-04-30T05:40:41.901Z,69.35
2023-04-30T05:43:10.064Z,69.00
2023-04-30T05:45:38.204Z,68.68
2023-04-30T05:48:06.416Z,68.23
2023-04-30T05:50:34.577Z,68.34
2023-04-30T05:53:02.742Z,68.42
2023-04-30T05:55:31.533Z,67.73
2023-04-30T05:57:59.666Z,67.19
2023-04-30T06:00:27.996Z,66.65
2023-04-30T06:02:56.098Z,66.34
2023-04-30T06:05:24.271Z,66.39
2023-04-30T06:07:52.433Z,66.39
2023-04-30T06:10:21.230Z,66.12
2023-04-30T06:12:49.460Z,66.27
2023-04-30T06:15:17.677Z,66.29
2023-04-30T06:17:45.741Z,66.26
2023-04-30T06:20:14.868Z,65.93
2023-04-30T06:22:43.091Z,65.17
2023-04-30T06:25:11.152Z,65.36
2023-04-30T06:27:39.711Z,65.73
2023-04-30T06:30:09.088Z,64.94
2023-04-30T06:32:37.255Z,65.26
2023-04-30T06:35:05.956Z,64.53
2023-04-30T06:37:37.986Z,64.36
2023-04-30T06:40:07.418Z,64.43
2023-04-30T06:42:36.045Z,64.55
2023-04-30T06:45:06.781Z,64.98
2023-04-30T06:47:36.317Z,65.34
2023-04-30T06:50:05.458Z,65.80
2023-04-30T06:52:33.550Z,65.44
2023-04-30T06:55:02.163Z,65.51
2023-04-30T06:57:31.241Z,65.53
2023-04-30T06:59:59.300Z,65.72
2023-04-30T07:02:28.152Z,65.43
2023-04-30T07:04:56.314Z,65.05
2023-04-30T07:07:24.619Z,64.77
2023-04-30T07:09:53.906Z,64.44
2023-04-30T07:12:22.663Z,64.54
2023-04-30T07:14:50.849Z,63.98
2023-04-30T07:17:19.214Z,63.40
2023-04-30T07:19:47.321Z,63.18
2023-04-30T07:22:15.442Z,63.16
2023-04-30T07:24:43.489Z,63.20
2023-04-30T07:27:11.767Z,62.69
2023-04-30T07:29:39.913Z,62.73
2023-04-30T07:32:08.165Z,60.83
2023-04-30T07:34:36.218Z,60.05
2023-04-30T07:37:04.327Z,60.63
2023-04-30T07:39:32.424Z,61.48
2023-04-30T07:42:02.694Z,61.83
2023-04-30T07:44:31.789Z,62.39
2023-04-30T07:46:59.848Z,62.75
2023-04-30T07:49:31.937Z,62.89
2023-04-30T07:52:16.078Z,62.97
2023-04-30T07:54:45.810Z,62.16
2023-04-30T07:57:35.524Z,62.24
2023-04-30T08:00:04.467Z,62.43
2023-04-30T08:02:44.674Z,62.83
2023-04-30T08:05:13.664Z,62.75
2023-04-30T08:07:42.251Z,61.91
2023-04-30T08:10:10.804Z,59.98
2023-04-30T08:12:43.855Z,58.51
2023-04-30T08:15:14.460Z,59.43
2023-04-30T08:17:42.984Z,59.04
2023-04-30T08:20:11.528Z,60.25
2023-04-30T08:22:39.796Z,60.51
2023-04-30T08:25:11.252Z,59.75
2023-04-30T08:27:40.415Z,58.63
2023-04-30T08:30:10.274Z,57.76
2023-04-30T08:32:38.696Z,57.83
2023-04-30T08:35:09.522Z,58.90
2023-04-30T08:37:37.790Z,59.37
2023-04-30T08:40:09.815Z,59.88
2023-04-30T08:42:47.134Z,59.79
2023-04-30T08:46:00.731Z,60.51
2023-04-30T08:48:30.178Z,58.42
2023-04-30T08:51:02.594Z,56.93
2023-04-30T08:53:34.756Z,56.89
2023-04-30T08:56:04.577Z,58.06
2023-04-30T08:58:32.665Z,57.17
2023-04-30T09:01:02.570Z,53.65
2023-04-30T09:03:31.642Z,55.21
2023-04-30T09:06:00.028Z,56.56
2023-04-30T09:08:48.948Z,57.14
2023-04-30T09:11:32.153Z,57.90
2023-04-30T09:14:02.000Z,55.71
2023-04-30T09:16:34.423Z,54.96
2023-04-30T09:19:02.717Z,54.52
2023-04-30T09:21:37.732Z,55.49
2023-04-30T09:24:06.371Z,56.03
2023-04-30T09:26:36.913Z,57.12
2023-04-30T09:29:08.898Z,57.25
2023-04-30T09:31:38.938Z,56.77
2023-04-30T09:34:07.337Z,57.27
2023-04-30T09:36:36.004Z,56.97
2023-04-30T09:39:14.857Z,53.85
2023-04-30T09:41:44.829Z,55.03
2023-04-30T09:44:32.674Z,54.76
2023-04-30T09:47:00.885Z,53.25
2023-04-30T09:49:29.059Z,54.38
2023-04-30T09:51:58.869Z,55.73
2023-04-30T09:54:48.522Z,54.67
2023-04-30T09:57:17.147Z,55.63
2023-04-30T09:59:47.088Z,54.12
2023-04-30T10:02:16.466Z,54.71
2023-04-30T10:04:49.015Z,55.12
2023-04-30T10:07:22.124Z,55.39
2023-04-30T10:09:59.524Z,53.48
2023-04-30T10:12:40.727Z,53.66
2023-04-30T10:15:17.068Z,54.67
2023-04-30T10:17:50.649Z,54.33
2023-04-30T10:20:21.827Z,54.17
2023-04-30T10:22:50.268Z,54.49
2023-04-30T10:25:18.711Z,54.70
2023-04-30T10:27:46.885Z,53.88
2023-04-30T10:30:16.641Z,53.99
2023-04-30T10:32:57.944Z,53.54
2023-04-30T10:35:33.648Z,53.61
2023-04-30T10:38:09.665Z,53.38
2023-04-30T10:40:38.845Z,53.23
2023-04-30T10:43:06.920Z,53.37
2023-04-30T10:45:39.843Z,52.29
2023-04-30T10:48:08.260Z,52.20
2023-04-30T10:50:46.038Z,53.07
2023-04-30T10:53:18.361Z,52.07
2023-04-30T10:56:09.319Z,52.39
2023-04-30T10:58:39.740Z,51.02
2023-04-30T11:01:15.830Z,51.28
2023-04-30T11:04:07.802Z,52.58
2023-04-30T11:06:54.203Z,53.30
2023-04-30T11:09:45.505Z,52.41
2023-04-30T11:12:16.078Z,50.14
2023-04-30T11:14:46.288Z,50.21
2023-04-30T11:17:23.409Z,48.75
2023-04-30T11:19:53.306Z,48.28
2023-04-30T11:22:24.561Z,48.95
2023-04-30T11:24:58.450Z,47.76
2023-04-30T11:27:28.515Z,49.41
2023-04-30T11:29:58.077Z,49.56
2023-04-30T11:32:27.658Z,50.89
2023-04-30T11:34:56.105Z,51.24
2023-04-30T11:37:34.979Z,50.65
2023-04-30T11:40:08.752Z,50.94
2023-04-30T11:42:39.526Z,50.46
2023-04-30T11:45:10.161Z,50.85
2023-04-30T11:47:46.396Z,50.99
2023-04-30T11:50:17.508Z,48.99
2023-04-30T11:52:50.912Z,48.34
2023-04-30T11:55:21.602Z,48.70
2023-04-30T11:57:53.166Z,47.21
2023-04-30T12:00:26.674Z,47.51
2023-04-30T12:02:56.309Z,47.91
2023-04-30T12:05:25.184Z,49.15
2023-04-30T12:08:06.898Z,48.70
2023-04-30T12:10:36.537Z,48.43
2023-04-30T12:13:04.611Z,49.82
2023-04-30T12:15:33.444Z,50.48
2023-04-30T12:18:13.379Z,48.89
2023-04-30T12:20:42.679Z,49.22
2023-04-30T12:23:11.032Z,50.00
2023-04-30T12:25:45.869Z,50.32
2023-04-30T12:28:14.032Z,47.63
2023-04-30T12:30:43.559Z,47.37
2023-04-30T12:33:12.182Z,46.43
2023-04-30T12:35:43.610Z,47.17
2023-04-30T12:38:16.140Z,48.65
2023-04-30T12:40:49.032Z,48.27
2023-04-30T12:43:18.375Z,47.03
2023-04-30T12:45:52.145Z,47.35
2023-04-30T12:48:23.067Z,48.34
2023-04-30T12:51:01.307Z,48.93
2023-04-30T12:53:30.565Z,47.52
2023-04-30T12:56:17.895Z,46.14
2023-04-30T12:58:50.082Z,45.86
2023-04-30T13:01:21.259Z,43.78
2023-04-30T13:03:49.694Z,46.21
2023-04-30T13:06:18.317Z,45.98
2023-04-30T13:08:57.972Z,46.85
2023-04-30T13:11:27.911Z,45.35
2023-04-30T13:13:56.631Z,46.23
2023-04-30T13:16:25.669Z,46.83
2023-04-30T13:18:55.114Z,47.15
2023-04-30T13:21:24.986Z,43.87
2023-04-30T13:23:54.576Z,43.64
2023-04-30T13:26:24.034Z,43.80
2023-04-30T13:28:52.502Z,43.74
2023-04-30T13:31:20.730Z,41.87
2023-04-30T13:33:49.332Z,41.68
2023-04-30T13:36:17.555Z,41.91
2023-04-30T13:38:45.796Z,40.98
2023-04-30T13:41:14.303Z,43.41
2023-04-30T13:43:43.025Z,42.89
2023-04-30T13:46:11.589Z,40.47
2023-04-30T13:48:39.756Z,41.68
2023-04-30T13:51:08.480Z,42.12
2023-04-30T13:53:37.419Z,40.46
2023-04-30T13:56:06.659Z,42.18
2023-04-30T13:58:35.371Z,43.29
2023-04-30T14:01:03.779Z,44.15
2023-04-30T14:03:32.089Z,43.71
2023-04-30T14:06:00.317Z,42.88
2023-04-30T14:08:28.575Z,41.41
2023-04-30T14:10:56.645Z,41.75
2023-04-30T14:13:24.810Z,41.87
2023-04-30T14:15:52.997Z,42.49
2023-04-30T14:18:22.850Z,42.64
2023-04-30T14:20:51.216Z,42.43
2023-04-30T14:23:19.445Z,42.27
2023-04-30T14:25:47.763Z,42.91
2023-04-30T14:28:15.878Z,43.49
2023-04-30T14:30:44.082Z,44.26
2023-04-30T14:33:13.112Z,43.78
2023-04-30T14:35:41.728Z,42.82
2023-04-30T14:38:10.220Z,43.32
2023-04-30T14:40:38.567Z,43.96
2023-04-30T14:43:06.731Z,43.21
2023-04-30T14:45:35.095Z,42.73
2023-04-30T14:48:05.643Z,43.23
2023-04-30T14:50:33.904Z,42.88
2023-04-30T14:53:02.111Z,42.44
2023-04-30T14:55:30.461Z,43.14
2023-04-30T14:58:01.632Z,43.00
2023-04-30T15:00:29.805Z,43.26
2023-04-30T15:02:58.020Z,43.98
2023-04-30T15:05:26.884Z,44.95
2023-04-30T15:07:55.041Z,45.47
2023-04-30T15:10:23.164Z,45.31
2023-04-30T15:12:51.606Z,45.30
2023-04-30T15:15:21.396Z,45.46
2023-04-30T15:17:49.567Z,43.84
2023-04-30T15:20:17.742Z,44.22
2023-04-30T15:22:45.872Z,44.05
2023-04-30T15:25:14.116Z,44.39
2023-04-30T15:27:42.211Z,43.38
2023-04-30T15:30:10.641Z,42.72
2023-04-30T15:32:39.151Z,42.64
2023-04-30T15:35:07.607Z,43.26
2023-04-30T15:37:36.624Z,43.42
2023-04-30T15:40:05.734Z,41.71
2023-04-30T15:42:33.977Z,42.67
2023-04-30T15:45:01.998Z,42.28
2023-04-30T15:47:30.123Z,42.79
2023-04-30T15:49:58.253Z,42.22
2023-04-30T15:52:26.343Z,42.85
2023-04-30T15:54:54.413Z,42.74
2023-04-30T15:57:22.979Z,43.04
2023-04-30T15:59:51.360Z,43.76
2023-04-30T16:02:19.463Z,44.38
2023-04-30T16:04:47.574Z,44.19
2023-04-30T16:07:15.630Z,44.13
2023-04-30T16:09:45.980Z,44.09
2023-04-30T16:12:14.126Z,43.39
2023-04-30T16:14:42.537Z,43.19
2023-04-30T16:17:10.674Z,43.66
2023-04-30T16:19:38.766Z,43.64
2023-04-30T16:22:09.142Z,44.14
2023-04-30T16:24:37.475Z,44.28
2023-04-30T16:27:05.719Z,45.03
2023-04-30T16:29:34.035Z,45.26
2023-04-30T16:32:02.296Z,45.59
2023-04-30T16:34:30.526Z,46.36
2023-04-30T16:36:58.627Z,46.46
2023-04-30T16:39:26.719Z,46.66
2023-04-30T16:41:55.494Z,46.50
2023-04-30T16:44:24.062Z,46.45
2023-04-30T16:46:52.227Z,46.85
2023-04-30T16:49:21.604Z,47.44
2023-04-30T16:51:49.786Z,47.72
2023-04-30T16:54:17.874Z,48.05
2023-04-30T16:56:46.241Z,48.20
2023-04-30T16:59:14.327Z,48.63
2023-04-30T17:01:42.537Z,49.13
2023-04-30T17:04:12.319Z,49.46
2023-04-30T17:06:40.514Z,49.62
2023-04-30T17:09:08.798Z,49.93
2023-04-30T17:11:36.992Z,49.95
2023-04-30T17:14:05.245Z,50.03
2023-04-30T17:16:33.550Z,50.01
2023-04-30T17:19:01.730Z,50.35
2023-04-30T17:21:29.900Z,50.39
2023-04-30T17:23:58.713Z,50.18
2023-04-30T17:26:26.882Z,50.40
2023-04-30T17:28:54.955Z,50.32
2023-04-30T17:31:24.161Z,50.53
2023-04-30T17:33:52.504Z,50.76
2023-04-30T17:36:20.538Z,50.80
2023-04-30T17:38:48.644Z,50.98
2023-04-30T17:41:18.709Z,51.23
2023-04-30T17:43:46.802Z,51.47
2023-04-30T17:46:14.992Z,51.35
2023-04-30T17:48:43.220Z,51.48
2023-04-30T17:51:11.432Z,51.80
2023-04-30T17:53:39.484Z,51.77
2023-04-30T17:56:08.924Z,51.83
2023-04-30T17:58:39.809Z,51.91
2023-04-30T18:01:08.822Z,52.17
2023-04-30T18:03:37.306Z,52.20
2023-04-30T18:06:05.545Z,52.36
2023-04-30T18:08:33.699Z,52.66
2023-04-30T18:11:04.348Z,52.90
2023-04-30T18:13:32.865Z,53.00
2023-04-30T18:16:01.300Z,52.92
2023-04-30T18:18:29.489Z,53.33
2023-04-30T18:20:57.513Z,53.43
2023-04-30T18:23:41.891Z,53.50
2023-04-30T18:27:18.168Z,53.66
2023-04-30T18:30:00.403Z,53.76
2023-04-30T18:32:28.848Z,54.02
2023-04-30T18:34:57.357Z,53.85
2023-04-30T18:37:25.685Z,53.89
2023-04-30T18:39:54.070Z,54.17
2023-04-30T18:42:22.784Z,54.45
2023-04-30T18:44:51.398Z,54.52
2023-04-30T18:47:19.771Z,54.48
2023-04-30T18:49:48.198Z,54.71
2023-04-30T18:52:16.378Z,54.71
2023-04-30T18:54:44.768Z,54.71
2023-04-30T18:57:16.352Z,54.85
2023-04-30T18:59:44.821Z,54.98
2023-04-30T19:02:13.780Z,55.10
2023-04-30T19:04:42.002Z,55.27
2023-04-30T19:07:10.293Z,55.21
2023-04-30T19:09:38.474Z,55.44
2023-04-30T19:12:06.933Z,55.64
2023-04-30T19:14:36.410Z,55.95
2023-04-30T19:17:08.408Z,56.00
2023-04-30T19:19:36.789Z,56.28
2023-04-30T19:22:04.976Z,56.29
2023-04-30T19:24:33.733Z,56.30
2023-04-30T19:27:04.449Z,56.42
2023-04-30T19:29:32.759Z,56.43
2023-04-30T19:32:03.847Z,56.52
2023-04-30T19:34:32.725Z,56.42
2023-04-30T19:37:00.957Z,56.71
2023-04-30T19:39:34.191Z,56.70
2023-04-30T19:42:02.612Z,57.09
2023-04-30T19:44:31.364Z,57.05
2023-04-30T19:47:00.572Z,57.39
2023-04-30T19:49:33.366Z,57.39
2023-04-30T19:52:02.533Z,57.47
2023-04-30T19:54:36.413Z,57.42
2023-04-30T19:57:05.725Z,57.46
2023-04-30T19:59:34.175Z,57.54
2023-04-30T20:02:02.494Z,57.81
2023-04-30T20:04:31.160Z,57.74
2023-04-30T20:07:01.269Z,58.06
2023-04-30T20:09:29.771Z,58.15
2023-04-30T20:11:58.454Z,58.38
2023-04-30T20:14:27.387Z,58.39
2023-04-30T20:16:56.634Z,58.64
2023-04-30T20:19:25.658Z,58.71
2023-04-30T20:21:54.820Z,58.87
2023-04-30T20:24:23.373Z,58.63
2023-04-30T20:26:51.682Z,58.82
2023-04-30T20:29:21.131Z,58.84
2023-04-30T20:31:49.253Z,58.98
2023-04-30T20:34:17.436Z,58.56
2023-04-30T20:36:46.004Z,58.77
2023-04-30T20:39:14.803Z,58.54
2023-04-30T20:41:43.814Z,59.18
2023-04-30T20:44:11.960Z,59.26
2023-04-30T20:46:40.111Z,59.15
2023-04-30T20:49:11.128Z,58.96
2023-04-30T20:51:39.670Z,59.26
2023-04-30T20:54:09.494Z,59.19
2023-04-30T20:56:37.660Z,59.02
2023-04-30T20:59:05.958Z,59.14
2023-04-30T21:01:34.282Z,59.49
2023-04-30T21:04:02.583Z,59.62
2023-04-30T21:06:34.119Z,59.16
2023-04-30T21:09:02.433Z,59.37
2023-04-30T21:11:30.617Z,59.46
2023-04-30T21:13:58.810Z,59.94
2023-04-30T21:16:29.491Z,59.71
2023-04-30T21:18:58.465Z,59.86
2023-04-30T21:21:27.575Z,60.01
2023-04-30T21:23:55.837Z,60.15
2023-04-30T21:26:23.874Z,60.07
2023-04-30T21:28:52.821Z,60.18
2023-04-30T21:31:21.209Z,59.98
2023-04-30T21:33:49.450Z,60.03
2023-04-30T21:36:18.254Z,60.32
2023-04-30T21:38:46.682Z,60.47
2023-04-30T21:41:16.312Z,60.23
2023-04-30T21:43:44.451Z,60.30
2023-04-30T21:46:14.234Z,60.59
2023-04-30T21:48:42.728Z,60.56
2023-04-30T21:51:12.692Z,60.53
2023-04-30T21:53:44.554Z,60.62
2023-04-30T21:56:12.908Z,60.65
2023-04-30T21:58:41.144Z,60.68
2023-04-30T22:01:09.314Z,60.60
2023-04-30T22:03:37.771Z,61.10
2023-04-30T22:06:05.947Z,60.75
2023-04-30T22:08:34.299Z,60.56
2023-04-30T22:11:04.641Z,60.86
2023-04-30T22:13:32.881Z,60.83
2023-04-30T22:16:01.330Z,60.81
2023-04-30T22:18:29.594Z,60.93
2023-04-30T22:20:57.898Z,60.99
2023-04-30T22:23:26.245Z,61.21
2023-04-30T22:25:54.687Z,61.23
2023-04-30T22:28:23.566Z,61.48
2023-04-30T22:30:58.789Z,61.36
2023-04-30T22:33:27.435Z,61.50
2023-04-30T22:35:56.166Z,61.49
2023-04-30T22:38:24.271Z,61.71
2023-04-30T22:40:52.388Z,61.49
2023-04-30T22:43:20.658Z,61.73
2023-04-30T22:45:48.920Z,61.85
2023-04-30T22:48:17.325Z,61.91
2023-04-30T22:50:45.673Z,62.07
2023-04-30T22:53:13.978Z,62.02
2023-04-30T22:55:42.051Z,61.66
2023-04-30T22:58:10.152Z,61.97
2023-04-30T23:00:38.443Z,61.70
2023-04-30T23:03:06.837Z,61.87
2023-04-30T23:05:35.710Z,61.83
2023-04-30T23:08:04.673Z,62.16
2023-04-30T23:10:33.366Z,62.24
2023-04-30T23:13:02.029Z,62.34
2023-04-30T23:15:30.228Z,62.32
2023-04-30T23:18:00.384Z,62.52
2023-04-30T23:20:29.067Z,62.40
2023-04-30T23:22:57.400Z,62.38
2023-04-30T23:25:25.485Z,62.69
2023-04-30T23:27:53.972Z,62.67
2023-04-30T23:30:23.615Z,62.51
2023-04-30T23:32:51.905Z,62.58
2023-04-30T23:35:20.046Z,62.59
2023-04-30T23:37:48.068Z,62.46
2023-04-30T23:40:16.329Z,62.43
2023-04-30T23:42:44.351Z,62.77
2023-04-30T23:45:12.531Z,62.62
2023-04-30T23:47:40.696Z,62.86
2023-04-30T23:50:09.353Z,62.90
2023-04-30T23:52:37.480Z,62.97
2023-04-30T23:55:06.185Z,63.03
2023-04-30T23:57:34.257Z,63.10
